createdAt,value
2022-11-06T00:00:29.826Z,4.60
2022-11-06T00:15:23.982Z,4.67
2022-11-06T00:30:38.931Z,4.62
2022-11-06T00:45:24.026Z,4.67
2022-11-06T01:00:27.913Z,4.57
2022-11-06T01:15:24.426Z,4.40
2022-11-06T01:30:24.312Z,4.62
2022-11-06T01:45:24.340Z,4.60
2022-11-06T02:00:33.754Z,4.40
2022-11-06T02:15:23.947Z,4.60
2022-11-06T02:30:33.356Z,4.38
2022-11-06T02:45:33.007Z,4.22
2022-11-06T03:00:33.904Z,4.00
2022-11-06T03:15:23.717Z,3.97
2022-11-06T03:30:23.654Z,4.03
2022-11-06T03:45:23.607Z,4.15
2022-11-06T04:00:25.657Z,4.28
2022-11-06T04:15:23.557Z,4.15
2022-11-06T04:30:23.609Z,4.33
2022-11-06T04:45:23.591Z,3.97
2022-11-06T05:00:28.538Z,3.88
2022-11-06T05:15:23.814Z,3.88
2022-11-06T05:30:23.895Z,3.72
2022-11-06T05:45:23.418Z,3.70
2022-11-06T06:00:28.560Z,2.50
2022-11-06T06:15:23.620Z,3.25
2022-11-06T06:30:23.582Z,3.40
2022-11-06T06:45:23.605Z,3.12
2022-11-06T07:00:23.816Z,3.25
2022-11-06T07:15:24.017Z,3.22
2022-11-06T07:30:25.878Z,3.20
2022-11-06T07:45:23.574Z,3.25
2022-11-06T08:00:23.869Z,3.67
2022-11-06T08:15:23.912Z,3.80
2022-11-06T08:30:25.709Z,4.10
2022-11-06T08:37:02.050Z,6.00
2022-11-06T08:41:33.861Z,6.00
2022-11-06T08:50:56.934Z,6.50
2022-11-06T08:52:50.682Z,6.50
2022-11-06T09:07:40.556Z,4.47
2022-11-06T09:15:23.451Z,4.73
2022-11-06T09:30:23.940Z,4.00
2022-11-06T09:45:23.690Z,4.83
2022-11-06T10:00:35.200Z,4.85
2022-11-06T10:15:24.011Z,4.95
2022-11-06T10:30:25.694Z,5.03
2022-11-06T10:45:23.808Z,5.18
2022-11-06T11:00:36.124Z,5.25
2022-11-06T11:36:15.790Z,7.00
2022-11-06T11:51:05.102Z,5.93
2022-11-06T12:06:04.617Z,6.38
2022-11-06T12:15:23.926Z,7.20
2022-11-06T12:30:23.634Z,6.97
2022-11-06T12:45:23.688Z,7.43
2022-11-06T13:00:28.575Z,7.72
2022-11-06T13:15:24.128Z,8.12
2022-11-06T13:30:31.291Z,8.27
2022-11-06T13:45:23.677Z,8.40
2022-11-06T14:00:39.552Z,8.60
2022-11-06T14:15:23.705Z,8.45
2022-11-06T14:30:24.026Z,8.63
2022-11-06T14:45:24.233Z,8.38
2022-11-06T15:00:37.038Z,8.18
2022-11-06T15:15:24.028Z,8.18
2022-11-06T15:30:24.046Z,8.10
2022-11-06T15:45:24.356Z,8.07
2022-11-06T16:00:32.968Z,7.72
2022-11-06T16:15:24.103Z,7.45
2022-11-06T16:30:31.740Z,7.53
2022-11-06T16:45:24.066Z,7.32
2022-11-06T17:00:39.746Z,7.47
2022-11-06T17:15:24.151Z,7.35
2022-11-06T17:30:24.288Z,7.50
2022-11-06T17:45:23.985Z,7.27
2022-11-06T18:00:28.757Z,7.30
2022-11-06T18:15:33.746Z,7.30
2022-11-06T18:30:33.679Z,7.12
2022-11-06T18:45:33.454Z,7.10
2022-11-06T19:00:33.395Z,7.40
2022-11-06T19:15:23.622Z,7.45
2022-11-06T19:30:26.639Z,7.52
2022-11-06T19:45:23.406Z,7.57
2022-11-06T20:00:25.627Z,7.60
2022-11-06T20:15:24.223Z,7.57
2022-11-06T20:30:27.851Z,7.67
2022-11-06T20:45:23.514Z,7.47
2022-11-06T21:00:23.540Z,7.55
2022-11-06T21:15:23.798Z,7.95
2022-11-06T21:30:24.790Z,8.07
2022-11-06T21:45:23.284Z,8.05
2022-11-06T22:00:28.934Z,8.35
2022-11-06T22:15:23.661Z,8.38
2022-11-06T22:30:24.311Z,8.75
2022-11-06T22:45:23.515Z,9.25
2022-11-06T23:00:43.434Z,9.50
2022-11-06T23:15:23.826Z,8.48
2022-11-06T23:30:23.853Z,8.50
2022-11-06T23:45:23.783Z,8.73
